createdAt,value
2018-06-28T00:00:07.657Z,65.30
2018-06-28T00:00:54.885Z,65.88
2018-06-28T00:03:05.267Z,65.75
2018-06-28T00:04:01.589Z,65.17
2018-06-28T00:05:55.787Z,65.56
2018-06-28T00:06:55.080Z,65.66
2018-06-28T00:07:55.160Z,65.84
2018-06-28T00:08:55.035Z,66.33
2018-06-28T00:09:55.100Z,65.66
2018-06-28T00:10:56.172Z,66.04
2018-06-28T00:11:55.030Z,66.14
2018-06-28T00:12:55.045Z,66.14
2018-06-28T00:14:54.958Z,66.23
2018-06-28T00:15:54.999Z,66.33
2018-06-28T00:16:55.055Z,65.66
2018-06-28T00:17:55.126Z,65.37
2018-06-28T00:18:56.666Z,65.66
2018-06-28T00:19:55.081Z,65.37
2018-06-28T00:20:55.060Z,65.56
2018-06-28T00:22:57.684Z,65.66
2018-06-28T00:23:55.006Z,65.66
2018-06-28T00:24:54.826Z,65.17
2018-06-28T00:25:57.615Z,65.84
2018-06-28T00:26:55.036Z,65.75
2018-06-28T00:27:54.964Z,65.66
2018-06-28T00:28:54.846Z,66.42
2018-06-28T00:29:54.840Z,66.42
2018-06-28T00:30:55.006Z,66.39
2018-06-28T00:31:54.996Z,66.39
2018-06-28T00:32:54.788Z,65.84
2018-06-28T00:33:54.787Z,66.81
2018-06-28T00:34:56.746Z,66.42
2018-06-28T00:35:54.831Z,66.87
2018-06-28T00:36:56.708Z,66.42
2018-06-28T00:37:54.672Z,67.00
2018-06-28T00:38:57.149Z,66.58
2018-06-28T00:39:55.344Z,66.58
2018-06-28T00:40:54.782Z,66.39
2018-06-28T00:41:54.923Z,66.42
2018-06-28T00:42:54.780Z,66.49
2018-06-28T00:43:54.805Z,66.30
2018-06-28T00:44:54.879Z,66.49
2018-06-28T00:45:54.770Z,66.97
2018-06-28T00:46:54.804Z,66.97
2018-06-28T00:47:54.738Z,67.07
2018-06-28T00:48:54.822Z,66.97
2018-06-28T00:49:54.751Z,67.25
2018-06-28T00:50:54.758Z,67.54
2018-06-28T00:51:55.225Z,67.16
2018-06-28T00:52:54.710Z,66.97
2018-06-28T00:53:54.729Z,67.45
2018-06-28T00:55:54.763Z,67.74
2018-06-28T00:56:54.683Z,68.21
2018-06-28T00:57:54.715Z,67.74
2018-06-28T00:58:54.609Z,68.51
2018-06-28T00:59:56.117Z,68.51
2018-06-28T01:00:54.709Z,68.02
2018-06-28T01:01:54.654Z,68.21
2018-06-28T01:02:54.682Z,68.51
2018-06-28T01:03:54.666Z,68.51
2018-06-28T01:05:54.492Z,68.21
2018-06-28T01:07:54.502Z,68.51
2018-06-28T01:08:54.592Z,68.12
2018-06-28T01:09:54.574Z,68.02
2018-06-28T01:10:54.415Z,69.56
2018-06-28T01:11:54.480Z,69.27
2018-06-28T01:12:54.414Z,69.37
2018-06-28T01:13:54.577Z,70.04
2018-06-28T01:14:57.220Z,70.81
2018-06-28T01:15:54.420Z,69.95
2018-06-28T01:16:54.268Z,70.81
2018-06-28T01:17:57.115Z,71.10
2018-06-28T01:18:54.480Z,71.48
2018-06-28T01:19:54.455Z,71.83
2018-06-28T01:21:54.509Z,72.79
2018-06-28T01:22:54.494Z,72.79
2018-06-28T01:23:54.390Z,72.89
2018-06-28T01:24:56.083Z,72.69
2018-06-28T01:25:54.364Z,72.69
2018-06-28T01:26:54.449Z,72.89
2018-06-28T01:27:54.535Z,72.69
2018-06-28T01:28:54.386Z,73.56
2018-06-28T01:29:54.175Z,73.46
2018-06-28T01:30:56.762Z,74.04
2018-06-28T01:31:54.389Z,73.56
2018-06-28T01:32:54.419Z,74.33
2018-06-28T01:34:54.260Z,74.04
2018-06-28T01:35:54.360Z,74.33
2018-06-28T01:36:54.380Z,75.38
2018-06-28T01:37:54.835Z,74.33
2018-06-28T01:38:54.249Z,74.13
2018-06-28T01:39:56.252Z,75.20
2018-06-28T01:40:54.354Z,74.62
2018-06-28T01:41:54.247Z,73.75
2018-06-28T01:42:56.156Z,73.37
2018-06-28T01:43:56.159Z,72.22
2018-06-28T01:44:54.303Z,72.12
2018-06-28T01:45:54.302Z,72.60
2018-06-28T01:46:54.337Z,72.69
2018-06-28T01:47:54.278Z,73.37
2018-06-28T01:48:54.152Z,72.79
2018-06-28T01:49:54.143Z,72.89
2018-06-28T01:50:54.244Z,72.50
2018-06-28T01:51:56.716Z,73.08
2018-06-28T01:52:54.273Z,73.27
2018-06-28T01:53:55.669Z,73.56
2018-06-28T01:54:54.254Z,73.56
2018-06-28T01:55:54.217Z,73.75
2018-06-28T01:56:54.142Z,73.66
2018-06-28T01:57:54.148Z,73.75
2018-06-28T01:58:54.167Z,73.94
2018-06-28T01:59:53.967Z,73.94
2018-06-28T02:00:54.085Z,74.43
2018-06-28T02:01:54.158Z,73.94
2018-06-28T02:03:54.091Z,74.71
2018-06-28T02:04:54.116Z,74.52
2018-06-28T02:06:53.918Z,73.94
2018-06-28T02:07:55.644Z,73.46
2018-06-28T02:08:54.021Z,73.75
2018-06-28T02:09:54.097Z,74.04
2018-06-28T02:10:53.931Z,73.94
2018-06-28T02:11:54.039Z,73.46
2018-06-28T02:12:53.997Z,73.37
2018-06-28T02:13:54.083Z,73.37
2018-06-28T02:14:55.665Z,73.46
2018-06-28T02:15:55.620Z,73.66
2018-06-28T02:16:56.737Z,73.37
2018-06-28T02:17:55.695Z,73.18
2018-06-28T02:18:54.001Z,73.27
2018-06-28T02:19:55.637Z,72.89
2018-06-28T02:20:53.873Z,73.27
2018-06-28T02:21:56.258Z,73.88
2018-06-28T02:22:53.916Z,73.21
2018-06-28T02:23:53.841Z,73.79
2018-06-28T02:24:53.811Z,73.41
2018-06-28T02:25:53.900Z,73.50
2018-06-28T02:26:53.949Z,73.88
2018-06-28T02:27:53.819Z,73.50
2018-06-28T02:28:53.832Z,72.99
2018-06-28T02:29:53.709Z,73.50
2018-06-28T02:30:53.773Z,73.21
2018-06-28T02:31:53.826Z,73.11
2018-06-28T02:32:56.146Z,73.21
2018-06-28T02:33:53.783Z,73.60
2018-06-28T02:34:53.738Z,73.21
2018-06-28T02:35:53.791Z,73.21
2018-06-28T02:36:53.746Z,73.21
2018-06-28T02:38:54.844Z,74.08
2018-06-28T02:39:53.700Z,73.88
2018-06-28T02:40:53.668Z,74.17
2018-06-28T02:41:53.623Z,73.50
2018-06-28T02:42:53.671Z,73.60
2018-06-28T02:43:55.327Z,73.41
2018-06-28T02:45:53.732Z,73.31
2018-06-28T02:46:53.579Z,72.73
2018-06-28T02:47:53.677Z,73.50
2018-06-28T02:48:53.600Z,72.92
2018-06-28T02:49:53.660Z,72.73
2018-06-28T02:50:56.321Z,72.44
2018-06-28T02:51:53.627Z,72.67
2018-06-28T02:52:55.286Z,72.54
2018-06-28T02:53:53.617Z,72.38
2018-06-28T02:54:53.693Z,72.25
2018-06-28T02:55:53.648Z,72.48
2018-06-28T02:57:53.491Z,71.81
2018-06-28T02:58:55.241Z,71.91
2018-06-28T02:59:53.610Z,71.91
2018-06-28T03:00:53.644Z,71.23
2018-06-28T03:01:53.558Z,71.52
2018-06-28T03:02:53.638Z,71.33
2018-06-28T03:03:53.369Z,70.94
2018-06-28T03:04:53.566Z,70.94
2018-06-28T03:05:53.472Z,70.84
2018-06-28T03:06:53.447Z,70.98
2018-06-28T03:07:53.485Z,70.59
2018-06-28T03:08:53.390Z,70.68
2018-06-28T03:09:53.472Z,69.98
2018-06-28T03:10:53.467Z,70.40
2018-06-28T03:11:53.370Z,70.40
2018-06-28T03:12:53.371Z,69.73
2018-06-28T03:13:53.480Z,69.24
2018-06-28T03:14:53.460Z,67.90
2018-06-28T03:15:53.390Z,66.94
2018-06-28T03:16:55.703Z,66.94
2018-06-28T03:18:55.275Z,66.97
2018-06-28T03:19:53.317Z,66.97
2018-06-28T03:20:53.267Z,67.26
2018-06-28T03:21:53.440Z,67.16
2018-06-28T03:22:53.432Z,67.16
2018-06-28T03:23:53.310Z,67.55
2018-06-28T03:28:22.222Z,66.58
2018-06-28T03:29:06.195Z,66.30
2018-06-28T03:31:07.180Z,66.01
2018-06-28T03:32:00.046Z,66.20
2018-06-28T03:33:52.470Z,66.04
2018-06-28T03:34:51.874Z,65.37
2018-06-28T03:36:58.768Z,63.15
2018-06-28T03:37:58.569Z,63.64
2018-06-28T03:39:00.393Z,63.95
2018-06-28T03:40:03.285Z,62.19
2018-06-28T03:41:03.193Z,62.41
2018-06-28T03:41:59.386Z,62.60
2018-06-28T03:42:58.381Z,63.57
2018-06-28T03:44:08.812Z,63.38
2018-06-28T03:45:12.768Z,63.18
2018-06-28T03:45:58.859Z,63.28
2018-06-28T03:47:02.842Z,62.12
2018-06-28T03:47:58.358Z,61.93
2018-06-28T03:48:59.788Z,61.96
2018-06-28T03:49:58.333Z,62.06
2018-06-28T03:50:59.705Z,60.71
2018-06-28T03:51:58.247Z,60.23
2018-06-28T03:53:00.771Z,60.80
2018-06-28T03:53:58.284Z,59.65
2018-06-28T03:54:58.322Z,59.17
2018-06-28T03:56:00.897Z,58.59
2018-06-28T03:56:58.279Z,59.17
2018-06-28T04:07:49.499Z,56.79
2018-06-28T04:08:18.010Z,56.79
2018-06-28T04:16:47.899Z,55.24
2018-06-28T04:17:28.369Z,55.56
2018-06-28T04:21:43.543Z,55.76
2018-06-28T04:22:33.912Z,55.76
2018-06-28T04:28:19.084Z,56.04
2018-06-28T04:28:59.198Z,56.43
2018-06-28T04:39:57.368Z,54.98
2018-06-28T04:42:57.872Z,54.62
2018-06-28T04:44:12.029Z,54.91
2018-06-28T04:44:57.141Z,54.72
2018-06-28T04:47:01.933Z,55.20
2018-06-28T04:48:00.034Z,55.30
2018-06-28T04:48:57.300Z,55.33
2018-06-28T04:49:57.472Z,55.13
2018-06-28T04:51:02.010Z,55.33
2018-06-28T04:51:57.996Z,55.33
2018-06-28T04:53:07.949Z,54.94
2018-06-28T04:53:57.244Z,54.65
2018-06-28T04:54:57.805Z,54.65
2018-06-28T04:56:12.035Z,55.23
2018-06-28T04:56:57.210Z,55.23
2018-06-28T04:57:57.177Z,55.62
2018-06-28T05:00:07.994Z,55.62
2018-06-28T05:00:57.998Z,55.81
2018-06-28T05:01:57.134Z,55.42
2018-06-28T05:02:57.159Z,55.33
2018-06-28T05:03:57.750Z,55.16
2018-06-28T05:04:57.177Z,54.46
2018-06-28T05:05:57.215Z,53.81
2018-06-28T05:07:19.991Z,53.42
2018-06-28T05:07:57.086Z,53.61
2018-06-28T05:08:57.131Z,52.45
2018-06-28T05:09:58.942Z,52.75
2018-06-28T05:10:59.022Z,52.84
2018-06-28T05:11:57.071Z,52.26
2018-06-28T05:13:18.095Z,52.17
2018-06-28T05:13:57.141Z,51.87
2018-06-28T05:15:01.996Z,52.58
2018-06-28T05:15:57.136Z,51.51
2018-06-28T05:17:02.066Z,51.01
2018-06-28T05:17:57.097Z,51.13
2018-06-28T05:19:01.917Z,49.49
2018-06-28T05:20:11.999Z,50.16
2018-06-28T05:20:57.063Z,50.65
2018-06-28T05:21:57.034Z,50.55
2018-06-28T05:23:02.009Z,46.88
2018-06-28T05:24:18.020Z,46.90
2018-06-28T05:24:57.020Z,46.78
2018-06-28T05:25:58.062Z,47.19
2018-06-28T07:57:37.115Z,17.82
